sensor_id;sensor_type;location;lat;lon;timestamp;temperature;humidity
7970;DHT22;4030;52.362;9.206;2022-09-12T00:00:49;20.00;57.70
7970;DHT22;4030;52.362;9.206;2022-09-12T00:03:15;20.10;57.70
7970;DHT22;4030;52.362;9.206;2022-09-12T00:05:42;19.90;57.60
7970;DHT22;4030;52.362;9.206;2022-09-12T00:08:09;19.90;57.60
7970;DHT22;4030;52.362;9.206;2022-09-12T00:10:39;20.00;57.70
7970;DHT22;4030;52.362;9.206;2022-09-12T00:13:07;19.90;57.60
7970;DHT22;4030;52.362;9.206;2022-09-12T00:15:41;19.80;57.60
7970;DHT22;4030;52.362;9.206;2022-09-12T00:18:09;19.90;57.70
7970;DHT22;4030;52.362;9.206;2022-09-12T00:20:41;19.90;57.70
7970;DHT22;4030;52.362;9.206;2022-09-12T00:23:07;19.80;57.70
7970;DHT22;4030;52.362;9.206;2022-09-12T00:25:33;19.80;57.70
7970;DHT22;4030;52.362;9.206;2022-09-12T00:27:59;19.80;57.70
7970;DHT22;4030;52.362;9.206;2022-09-12T00:32:50;19.70;57.60
7970;DHT22;4030;52.362;9.206;2022-09-12T00:37:45;19.80;57.70
7970;DHT22;4030;52.362;9.206;2022-09-12T00:45:04;19.60;57.60
7970;DHT22;4030;52.362;9.206;2022-09-12T00:47:31;19.60;57.60
7970;DHT22;4030;52.362;9.206;2022-09-12T00:50:03;19.70;57.70
7970;DHT22;4030;52.362;9.206;2022-09-12T00:52:43;19.60;57.70
7970;DHT22;4030;52.362;9.206;2022-09-12T00:55:17;19.40;57.60
7970;DHT22;4030;52.362;9.206;2022-09-12T00:58:05;19.50;57.60
7970;DHT22;4030;52.362;9.206;2022-09-12T01:00:33;19.70;57.80
7970;DHT22;4030;52.362;9.206;2022-09-12T01:03:05;19.50;57.60
7970;DHT22;4030;52.362;9.206;2022-09-12T01:05:34;19.50;57.70
7970;DHT22;4030;52.362;9.206;2022-09-12T01:08:03;19.50;57.60
7970;DHT22;4030;52.362;9.206;2022-09-12T01:10:30;19.50;57.70
7970;DHT22;4030;52.362;9.206;2022-09-12T01:12:56;19.50;57.70
7970;DHT22;4030;52.362;9.206;2022-09-12T01:15:22;19.30;57.60
7970;DHT22;4030;52.362;9.206;2022-09-12T01:18:42;19.40;57.60
7970;DHT22;4030;52.362;9.206;2022-09-12T01:21:19;19.40;57.70
7970;DHT22;4030;52.362;9.206;2022-09-12T01:24:00;19.30;57.60
7970;DHT22;4030;52.362;9.206;2022-09-12T01:33:15;19.10;57.50
7970;DHT22;4030;52.362;9.206;2022-09-12T01:36:17;19.50;57.90
7970;DHT22;4030;52.362;9.206;2022-09-12T01:39:00;19.00;57.50
7970;DHT22;4030;52.362;9.206;2022-09-12T01:44:54;19.10;57.60
7970;DHT22;4030;52.362;9.206;2022-09-12T01:47:49;19.10;57.60
7970;DHT22;4030;52.362;9.206;2022-09-12T01:50:20;19.20;57.80
7970;DHT22;4030;52.362;9.206;2022-09-12T01:52:56;19.10;57.60
7970;DHT22;4030;52.362;9.206;2022-09-12T01:55:32;19.10;57.60
7970;DHT22;4030;52.362;9.206;2022-09-12T01:58:05;18.80;57.40
7970;DHT22;4030;52.362;9.206;2022-09-12T02:00:38;19.00;57.50
7970;DHT22;4030;52.362;9.206;2022-09-12T02:03:10;19.10;57.70
7970;DHT22;4030;52.362;9.206;2022-09-12T02:05:50;18.80;57.50
7970;DHT22;4030;52.362;9.206;2022-09-12T02:08:31;19.00;57.70
7970;DHT22;4030;52.362;9.206;2022-09-12T02:11:02;18.90;57.60
7970;DHT22;4030;52.362;9.206;2022-09-12T02:13:56;19.00;57.70
7970;DHT22;4030;52.362;9.206;2022-09-12T02:16:44;18.90;57.50
7970;DHT22;4030;52.362;9.206;2022-09-12T02:19:17;18.80;57.40
7970;DHT22;4030;52.362;9.206;2022-09-12T02:21:51;19.00;57.70
7970;DHT22;4030;52.362;9.206;2022-09-12T02:24:23;18.80;57.50
7970;DHT22;4030;52.362;9.206;2022-09-12T02:26:56;19.00;57.60
7970;DHT22;4030;52.362;9.206;2022-09-12T02:29:26;18.80;57.40
7970;DHT22;4030;52.362;9.206;2022-09-12T02:31:57;18.80;57.40
7970;DHT22;4030;52.362;9.206;2022-09-12T02:34:45;18.70;57.40
7970;DHT22;4030;52.362;9.206;2022-09-12T02:39:55;18.50;57.30
7970;DHT22;4030;52.362;9.206;2022-09-12T02:42:22;18.90;57.70
7970;DHT22;4030;52.362;9.206;2022-09-12T02:44:49;18.70;57.40
7970;DHT22;4030;52.362;9.206;2022-09-12T02:47:33;18.80;57.60
7970;DHT22;4030;52.362;9.206;2022-09-12T02:50:02;18.70;57.60
7970;DHT22;4030;52.362;9.206;2022-09-12T02:52:30;18.60;57.40
7970;DHT22;4030;52.362;9.206;2022-09-12T02:54:57;18.60;57.40
7970;DHT22;4030;52.362;9.206;2022-09-12T02:57:23;18.70;57.50
7970;DHT22;4030;52.362;9.206;2022-09-12T02:59:51;18.50;57.40
7970;DHT22;4030;52.362;9.206;2022-09-12T03:05:33;18.70;57.50
7970;DHT22;4030;52.362;9.206;2022-09-12T03:11:17;18.50;57.30
7970;DHT22;4030;52.362;9.206;2022-09-12T03:14:04;18.40;57.20
7970;DHT22;4030;52.362;9.206;2022-09-12T03:19:59;18.40;57.20
7970;DHT22;4030;52.362;9.206;2022-09-12T03:23:11;18.30;57.10
7970;DHT22;4030;52.362;9.206;2022-09-12T03:25:39;18.40;57.20
7970;DHT22;4030;52.362;9.206;2022-09-12T03:28:14;18.50;57.40
7970;DHT22;4030;52.362;9.206;2022-09-12T03:30:44;18.40;57.30
7970;DHT22;4030;52.362;9.206;2022-09-12T03:33:12;18.40;57.30
7970;DHT22;4030;52.362;9.206;2022-09-12T03:40:34;18.20;57.00
7970;DHT22;4030;52.362;9.206;2022-09-12T03:43:01;18.20;57.10
7970;DHT22;4030;52.362;9.206;2022-09-12T03:45:27;18.40;57.30
7970;DHT22;4030;52.362;9.206;2022-09-12T03:47:52;18.20;57.10
7970;DHT22;4030;52.362;9.206;2022-09-12T03:50:18;18.30;57.20
7970;DHT22;4030;52.362;9.206;2022-09-12T03:52:44;18.00;57.00
7970;DHT22;4030;52.362;9.206;2022-09-12T03:57:36;18.20;57.10
7970;DHT22;4030;52.362;9.206;2022-09-12T04:00:04;18.30;57.30
7970;DHT22;4030;52.362;9.206;2022-09-12T04:02:31;17.90;57.00
7970;DHT22;4030;52.362;9.206;2022-09-12T04:04:57;18.20;57.30
7970;DHT22;4030;52.362;9.206;2022-09-12T04:07:22;18.20;57.30
7970;DHT22;4030;52.362;9.206;2022-09-12T04:12:14;18.10;57.20
7970;DHT22;4030;52.362;9.206;2022-09-12T04:19:33;18.00;57.10
7970;DHT22;4030;52.362;9.206;2022-09-12T04:24:25;18.00;57.20
7970;DHT22;4030;52.362;9.206;2022-09-12T04:29:17;17.80;57.10
7970;DHT22;4030;52.362;9.206;2022-09-12T04:31:43;17.70;57.00
7970;DHT22;4030;52.362;9.206;2022-09-12T04:36:35;17.90;57.10
7970;DHT22;4030;52.362;9.206;2022-09-12T04:39:02;18.10;57.30
7970;DHT22;4030;52.362;9.206;2022-09-12T04:41:31;17.70;57.00
7970;DHT22;4030;52.362;9.206;2022-09-12T04:43:59;17.70;57.00
7970;DHT22;4030;52.362;9.206;2022-09-12T04:46:29;17.80;57.10
7970;DHT22;4030;52.362;9.206;2022-09-12T04:48:56;17.70;57.00
7970;DHT22;4030;52.362;9.206;2022-09-12T04:51:24;17.70;57.10
7970;DHT22;4030;52.362;9.206;2022-09-12T04:53:54;17.80;57.20
7970;DHT22;4030;52.362;9.206;2022-09-12T04:56:23;17.60;57.10
7970;DHT22;4030;52.362;9.206;2022-09-12T04:58:49;17.60;57.00
7970;DHT22;4030;52.362;9.206;2022-09-12T05:01:17;17.80;57.30
7970;DHT22;4030;52.362;9.206;2022-09-12T05:03:45;17.60;57.10
7970;DHT22;4030;52.362;9.206;2022-09-12T05:06:15;17.70;57.30
7970;DHT22;4030;52.362;9.206;2022-09-12T05:08:42;17.50;57.00
7970;DHT22;4030;52.362;9.206;2022-09-12T05:11:11;17.60;57.10
7970;DHT22;4030;52.362;9.206;2022-09-12T05:13:38;17.50;57.10
7970;DHT22;4030;52.362;9.206;2022-09-12T05:16:05;17.50;57.10
7970;DHT22;4030;52.362;9.206;2022-09-12T05:18:33;17.70;57.30
7970;DHT22;4030;52.362;9.206;2022-09-12T05:21:02;17.60;57.30
7970;DHT22;4030;52.362;9.206;2022-09-12T05:23:29;17.70;57.40
7970;DHT22;4030;52.362;9.206;2022-09-12T05:25:57;17.80;57.50
7970;DHT22;4030;52.362;9.206;2022-09-12T05:28:27;17.50;57.30
7970;DHT22;4030;52.362;9.206;2022-09-12T05:31:22;17.50;57.20
7970;DHT22;4030;52.362;9.206;2022-09-12T05:33:50;17.50;57.30
7970;DHT22;4030;52.362;9.206;2022-09-12T05:36:22;17.50;57.30
7970;DHT22;4030;52.362;9.206;2022-09-12T05:38:49;17.50;57.40
7970;DHT22;4030;52.362;9.206;2022-09-12T05:41:23;17.50;57.40
7970;DHT22;4030;52.362;9.206;2022-09-12T05:43:52;17.60;57.60
7970;DHT22;4030;52.362;9.206;2022-09-12T05:46:20;17.50;57.60
7970;DHT22;4030;52.362;9.206;2022-09-12T05:48:48;17.40;57.60
7970;DHT22;4030;52.362;9.206;2022-09-12T05:51:18;17.30;57.50
7970;DHT22;4030;52.362;9.206;2022-09-12T05:53:50;17.60;57.90
7970;DHT22;4030;52.362;9.206;2022-09-12T05:56:20;17.40;57.80
7970;DHT22;4030;52.362;9.206;2022-09-12T05:58:54;17.60;58.10
7970;DHT22;4030;52.362;9.206;2022-09-12T06:01:21;17.30;57.90
7970;DHT22;4030;52.362;9.206;2022-09-12T06:03:49;17.40;58.00
7970;DHT22;4030;52.362;9.206;2022-09-12T06:06:18;17.60;58.30
7970;DHT22;4030;52.362;9.206;2022-09-12T06:08:47;17.50;58.10
7970;DHT22;4030;52.362;9.206;2022-09-12T06:11:15;17.50;58.40
7970;DHT22;4030;52.362;9.206;2022-09-12T06:16:17;17.50;58.50
7970;DHT22;4030;52.362;9.206;2022-09-12T06:18:48;17.50;58.60
7970;DHT22;4030;52.362;9.206;2022-09-12T06:21:22;17.50;58.70
7970;DHT22;4030;52.362;9.206;2022-09-12T06:23:49;17.70;59.10
7970;DHT22;4030;52.362;9.206;2022-09-12T06:26:16;17.40;59.00
7970;DHT22;4030;52.362;9.206;2022-09-12T06:28:45;17.60;59.20
7970;DHT22;4030;52.362;9.206;2022-09-12T06:31:14;17.70;59.80
7970;DHT22;4030;52.362;9.206;2022-09-12T06:33:48;17.50;60.20
7970;DHT22;4030;52.362;9.206;2022-09-12T06:36:21;17.70;61.30
7970;DHT22;4030;52.362;9.206;2022-09-12T06:38:56;17.70;62.10
7970;DHT22;4030;52.362;9.206;2022-09-12T06:41:24;17.70;63.20
7970;DHT22;4030;52.362;9.206;2022-09-12T06:43:50;17.70;64.30
7970;DHT22;4030;52.362;9.206;2022-09-12T06:46:16;17.90;64.90
7970;DHT22;4030;52.362;9.206;2022-09-12T06:48:42;17.60;64.90
7970;DHT22;4030;52.362;9.206;2022-09-12T06:51:18;17.90;65.30
7970;DHT22;4030;52.362;9.206;2022-09-12T06:53:48;18.10;65.90
7970;DHT22;4030;52.362;9.206;2022-09-12T06:56:16;18.00;65.90
7970;DHT22;4030;52.362;9.206;2022-09-12T06:58:47;18.00;66.10
7970;DHT22;4030;52.362;9.206;2022-09-12T07:01:18;18.10;66.30
7970;DHT22;4030;52.362;9.206;2022-09-12T07:03:50;18.30;66.50
7970;DHT22;4030;52.362;9.206;2022-09-12T07:06:23;18.20;66.30
7970;DHT22;4030;52.362;9.206;2022-09-12T07:08:55;18.10;66.10
7970;DHT22;4030;52.362;9.206;2022-09-12T07:11:30;18.30;66.30
7970;DHT22;4030;52.362;9.206;2022-09-12T07:13:58;18.30;66.40
7970;DHT22;4030;52.362;9.206;2022-09-12T07:18:53;18.10;66.70
7970;DHT22;4030;52.362;9.206;2022-09-12T07:23:47;18.50;67.00
7970;DHT22;4030;52.362;9.206;2022-09-12T07:26:14;18.30;66.90
7970;DHT22;4030;52.362;9.206;2022-09-12T07:28:41;18.60;67.40
7970;DHT22;4030;52.362;9.206;2022-09-12T07:31:09;18.60;67.20
7970;DHT22;4030;52.362;9.206;2022-09-12T07:33:37;18.60;67.30
7970;DHT22;4030;52.362;9.206;2022-09-12T07:36:05;18.60;67.20
7970;DHT22;4030;52.362;9.206;2022-09-12T07:43:26;18.80;67.90
7970;DHT22;4030;52.362;9.206;2022-09-12T07:45:58;18.80;67.80
7970;DHT22;4030;52.362;9.206;2022-09-12T07:48:23;18.90;68.10
7970;DHT22;4030;52.362;9.206;2022-09-12T07:50:59;19.00;68.30
7970;DHT22;4030;52.362;9.206;2022-09-12T07:53:37;18.80;68.40
7970;DHT22;4030;52.362;9.206;2022-09-12T07:56:06;18.90;68.70
7970;DHT22;4030;52.362;9.206;2022-09-12T07:58:33;19.00;68.90
7970;DHT22;4030;52.362;9.206;2022-09-12T08:01:05;19.10;69.20
7970;DHT22;4030;52.362;9.206;2022-09-12T08:03:33;19.30;69.60
7970;DHT22;4030;52.362;9.206;2022-09-12T08:11:02;19.60;70.20
7970;DHT22;4030;52.362;9.206;2022-09-12T08:13:31;19.70;70.40
7970;DHT22;4030;52.362;9.206;2022-09-12T08:15:59;19.70;70.50
7970;DHT22;4030;52.362;9.206;2022-09-12T08:18:27;19.80;70.70
7970;DHT22;4030;52.362;9.206;2022-09-12T08:20:57;19.90;71.00
7970;DHT22;4030;52.362;9.206;2022-09-12T08:25:56;20.20;71.30
7970;DHT22;4030;52.362;9.206;2022-09-12T08:28:24;20.20;71.30
7970;DHT22;4030;52.362;9.206;2022-09-12T08:33:24;20.20;71.10
7970;DHT22;4030;52.362;9.206;2022-09-12T08:35:51;20.60;71.30
7970;DHT22;4030;52.362;9.206;2022-09-12T08:38:17;20.40;71.00
7970;DHT22;4030;52.362;9.206;2022-09-12T08:40:53;20.60;70.90
7970;DHT22;4030;52.362;9.206;2022-09-12T08:46:33;20.70;70.60
7970;DHT22;4030;52.362;9.206;2022-09-12T08:49:04;21.00;70.60
7970;DHT22;4030;52.362;9.206;2022-09-12T08:51:34;21.10;70.60
7970;DHT22;4030;52.362;9.206;2022-09-12T08:54:01;20.90;70.20
7970;DHT22;4030;52.362;9.206;2022-09-12T08:56:28;21.20;70.30
7970;DHT22;4030;52.362;9.206;2022-09-12T09:01:30;21.40;70.00
7970;DHT22;4030;52.362;9.206;2022-09-12T09:10:47;21.70;69.00
7970;DHT22;4030;52.362;9.206;2022-09-12T09:16:45;21.80;68.10
7970;DHT22;4030;52.362;9.206;2022-09-12T09:19:31;21.80;67.60
7970;DHT22;4030;52.362;9.206;2022-09-12T09:22:09;22.00;67.30
7970;DHT22;4030;52.362;9.206;2022-09-12T09:24:58;22.10;67.10
7970;DHT22;4030;52.362;9.206;2022-09-12T09:27:32;21.90;66.50
7970;DHT22;4030;52.362;9.206;2022-09-12T09:30:02;22.00;66.20
7970;DHT22;4030;52.362;9.206;2022-09-12T09:32:32;22.20;66.10
7970;DHT22;4030;52.362;9.206;2022-09-12T09:35:10;22.30;65.80
7970;DHT22;4030;52.362;9.206;2022-09-12T09:37:42;22.40;65.60
7970;DHT22;4030;52.362;9.206;2022-09-12T09:40:23;22.30;65.10
7970;DHT22;4030;52.362;9.206;2022-09-12T09:50:59;22.50;64.20
7970;DHT22;4030;52.362;9.206;2022-09-12T09:53:47;22.60;64.00
7970;DHT22;4030;52.362;9.206;2022-09-12T10:01:43;22.90;64.00
7970;DHT22;4030;52.362;9.206;2022-09-12T10:04:38;22.60;63.60
7970;DHT22;4030;52.362;9.206;2022-09-12T10:07:16;22.90;63.70
7970;DHT22;4030;52.362;9.206;2022-09-12T10:10:20;22.90;63.50
7970;DHT22;4030;52.362;9.206;2022-09-12T10:12:49;23.00;63.50
7970;DHT22;4030;52.362;9.206;2022-09-12T10:15:23;23.10;63.40
7970;DHT22;4030;52.362;9.206;2022-09-12T10:17:54;23.00;62.90
7970;DHT22;4030;52.362;9.206;2022-09-12T10:20:38;23.00;62.80
7970;DHT22;4030;52.362;9.206;2022-09-12T10:25:45;23.20;62.60
7970;DHT22;4030;52.362;9.206;2022-09-12T10:28:30;23.10;62.40
7970;DHT22;4030;52.362;9.206;2022-09-12T10:33:27;23.50;62.60
7970;DHT22;4030;52.362;9.206;2022-09-12T10:35:54;23.50;62.40
7970;DHT22;4030;52.362;9.206;2022-09-12T10:40:57;23.70;62.30
7970;DHT22;4030;52.362;9.206;2022-09-12T10:48:51;23.80;61.80
7970;DHT22;4030;52.362;9.206;2022-09-12T10:51:48;23.80;60.90
7970;DHT22;4030;52.362;9.206;2022-09-12T10:54:17;24.00;60.40
7970;DHT22;4030;52.362;9.206;2022-09-12T11:00:03;23.90;58.00
7970;DHT22;4030;52.362;9.206;2022-09-12T11:05:50;23.90;57.00
7970;DHT22;4030;52.362;9.206;2022-09-12T11:08:50;24.00;57.60
7970;DHT22;4030;52.362;9.206;2022-09-12T11:17:53;24.20;59.10
7970;DHT22;4030;52.362;9.206;2022-09-12T11:30:00;24.60;60.80
7970;DHT22;4030;52.362;9.206;2022-09-12T11:41:27;25.10;61.80
7970;DHT22;4030;52.362;9.206;2022-09-12T11:44:19;25.20;61.90
7970;DHT22;4030;52.362;9.206;2022-09-12T11:46:49;25.20;61.90
7970;DHT22;4030;52.362;9.206;2022-09-12T11:52:17;25.40;62.00
7970;DHT22;4030;52.362;9.206;2022-09-12T11:54:47;25.50;62.00
7970;DHT22;4030;52.362;9.206;2022-09-12T11:57:19;25.60;62.00
7970;DHT22;4030;52.362;9.206;2022-09-12T12:05:41;26.00;61.80
7970;DHT22;4030;52.362;9.206;2022-09-12T12:08:09;26.20;61.80
7970;DHT22;4030;52.362;9.206;2022-09-12T12:10:38;26.30;61.50
7970;DHT22;4030;52.362;9.206;2022-09-12T12:13:15;26.50;61.30
7970;DHT22;4030;52.362;9.206;2022-09-12T12:15:50;26.60;61.10
7970;DHT22;4030;52.362;9.206;2022-09-12T12:18:23;26.70;60.70
7970;DHT22;4030;52.362;9.206;2022-09-12T12:20:51;26.80;60.40
7970;DHT22;4030;52.362;9.206;2022-09-12T12:23:26;27.00;60.00
7970;DHT22;4030;52.362;9.206;2022-09-12T12:25:57;26.90;59.60
7970;DHT22;4030;52.362;9.206;2022-09-12T12:31:09;27.20;59.20
7970;DHT22;4030;52.362;9.206;2022-09-12T12:36:08;27.20;58.60
7970;DHT22;4030;52.362;9.206;2022-09-12T12:38:37;27.60;58.50
7970;DHT22;4030;52.362;9.206;2022-09-12T12:43:51;27.40;57.60
7970;DHT22;4030;52.362;9.206;2022-09-12T12:46:26;27.60;56.00
7970;DHT22;4030;52.362;9.206;2022-09-12T12:49:06;27.60;54.90
7970;DHT22;4030;52.362;9.206;2022-09-12T12:54:08;27.60;54.20
7970;DHT22;4030;52.362;9.206;2022-09-12T12:57:26;27.60;53.90
7970;DHT22;4030;52.362;9.206;2022-09-12T13:00:45;27.70;53.80
7970;DHT22;4030;52.362;9.206;2022-09-12T13:05:48;27.70;53.50
7970;DHT22;4030;52.362;9.206;2022-09-12T13:17:38;27.90;53.00
7970;DHT22;4030;52.362;9.206;2022-09-12T13:20:21;28.00;52.90
7970;DHT22;4030;52.362;9.206;2022-09-12T13:22:51;27.80;52.60
7970;DHT22;4030;52.362;9.206;2022-09-12T13:25:29;28.10;52.50
7970;DHT22;4030;52.362;9.206;2022-09-12T13:28:16;28.10;52.30
7970;DHT22;4030;52.362;9.206;2022-09-12T13:31:20;28.20;52.20
7970;DHT22;4030;52.362;9.206;2022-09-12T13:33:56;28.30;51.90
7970;DHT22;4030;52.362;9.206;2022-09-12T13:36:36;28.20;51.60
7970;DHT22;4030;52.362;9.206;2022-09-12T13:44:51;28.60;51.40
7970;DHT22;4030;52.362;9.206;2022-09-12T13:47:35;28.40;50.40
7970;DHT22;4030;52.362;9.206;2022-09-12T13:50:05;28.30;47.80
7970;DHT22;4030;52.362;9.206;2022-09-12T13:52:36;28.40;46.40
7970;DHT22;4030;52.362;9.206;2022-09-12T13:55:09;28.40;44.90
7970;DHT22;4030;52.362;9.206;2022-09-12T13:58:02;28.40;43.90
7970;DHT22;4030;52.362;9.206;2022-09-12T14:00:31;28.30;43.70
7970;DHT22;4030;52.362;9.206;2022-09-12T14:03:00;28.40;43.20
7970;DHT22;4030;52.362;9.206;2022-09-12T14:05:54;28.40;42.80
7970;DHT22;4030;52.362;9.206;2022-09-12T14:08:21;28.30;42.80
7970;DHT22;4030;52.362;9.206;2022-09-12T14:10:48;28.50;43.10
7970;DHT22;4030;52.362;9.206;2022-09-12T14:13:20;28.40;42.90
7970;DHT22;4030;52.362;9.206;2022-09-12T14:15:50;28.40;42.60
7970;DHT22;4030;52.362;9.206;2022-09-12T14:18:29;28.30;42.20
7970;DHT22;4030;52.362;9.206;2022-09-12T14:21:11;28.40;42.30
7970;DHT22;4030;52.362;9.206;2022-09-12T14:23:47;28.30;42.50
7970;DHT22;4030;52.362;9.206;2022-09-12T14:26:14;28.30;42.10
7970;DHT22;4030;52.362;9.206;2022-09-12T14:28:43;28.30;42.60
7970;DHT22;4030;52.362;9.206;2022-09-12T14:31:30;28.30;43.40
7970;DHT22;4030;52.362;9.206;2022-09-12T14:34:11;28.40;43.20
7970;DHT22;4030;52.362;9.206;2022-09-12T14:36:48;28.40;43.20
7970;DHT22;4030;52.362;9.206;2022-09-12T14:42:06;28.50;43.30
7970;DHT22;4030;52.362;9.206;2022-09-12T14:44:38;28.60;43.20
7970;DHT22;4030;52.362;9.206;2022-09-12T14:47:13;28.60;43.10
7970;DHT22;4030;52.362;9.206;2022-09-12T14:49:42;28.60;43.20
7970;DHT22;4030;52.362;9.206;2022-09-12T14:55:18;28.70;42.50
7970;DHT22;4030;52.362;9.206;2022-09-12T14:57:45;28.60;42.40
7970;DHT22;4030;52.362;9.206;2022-09-12T15:02:42;28.70;42.00
7970;DHT22;4030;52.362;9.206;2022-09-12T15:07:41;28.80;42.40
7970;DHT22;4030;52.362;9.206;2022-09-12T15:15:40;28.60;43.60
7970;DHT22;4030;52.362;9.206;2022-09-12T15:18:16;28.60;42.50
7970;DHT22;4030;52.362;9.206;2022-09-12T15:20:45;28.60;42.40
7970;DHT22;4030;52.362;9.206;2022-09-12T15:26:04;28.60;42.10
7970;DHT22;4030;52.362;9.206;2022-09-12T15:28:31;28.60;42.50
7970;DHT22;4030;52.362;9.206;2022-09-12T15:31:04;28.60;42.50
7970;DHT22;4030;52.362;9.206;2022-09-12T15:33:32;28.60;44.30
7970;DHT22;4030;52.362;9.206;2022-09-12T15:35:57;28.50;42.50
7970;DHT22;4030;52.362;9.206;2022-09-12T15:40:50;28.30;41.10
7970;DHT22;4030;52.362;9.206;2022-09-12T15:43:21;28.40;40.80
7970;DHT22;4030;52.362;9.206;2022-09-12T15:45:48;28.30;41.30
7970;DHT22;4030;52.362;9.206;2022-09-12T15:48:16;28.30;41.20
7970;DHT22;4030;52.362;9.206;2022-09-12T15:50:42;28.30;42.20
7970;DHT22;4030;52.362;9.206;2022-09-12T15:53:16;28.30;41.50
7970;DHT22;4030;52.362;9.206;2022-09-12T15:55:43;28.30;41.50
7970;DHT22;4030;52.362;9.206;2022-09-12T15:58:09;28.10;41.30
7970;DHT22;4030;52.362;9.206;2022-09-12T16:00:34;28.20;41.50
7970;DHT22;4030;52.362;9.206;2022-09-12T16:03:00;28.20;41.60
7970;DHT22;4030;52.362;9.206;2022-09-12T16:05:27;28.10;41.20
7970;DHT22;4030;52.362;9.206;2022-09-12T16:07:54;28.10;40.80
7970;DHT22;4030;52.362;9.206;2022-09-12T16:10:28;28.00;40.60
7970;DHT22;4030;52.362;9.206;2022-09-12T16:12:55;27.90;40.40
7970;DHT22;4030;52.362;9.206;2022-09-12T16:15:23;27.90;40.20
7970;DHT22;4030;52.362;9.206;2022-09-12T16:17:50;27.90;40.00
7970;DHT22;4030;52.362;9.206;2022-09-12T16:20:16;27.80;39.80
7970;DHT22;4030;52.362;9.206;2022-09-12T16:22:43;27.80;40.00
7970;DHT22;4030;52.362;9.206;2022-09-12T16:25:09;27.60;40.00
7970;DHT22;4030;52.362;9.206;2022-09-12T16:27:35;27.70;40.00
7970;DHT22;4030;52.362;9.206;2022-09-12T16:30:02;27.70;40.20
7970;DHT22;4030;52.362;9.206;2022-09-12T16:34:55;27.50;40.00
7970;DHT22;4030;52.362;9.206;2022-09-12T16:42:15;27.40;40.40
7970;DHT22;4030;52.362;9.206;2022-09-12T16:44:47;27.20;40.40
7970;DHT22;4030;52.362;9.206;2022-09-12T16:47:13;27.10;40.50
7970;DHT22;4030;52.362;9.206;2022-09-12T16:52:05;27.30;40.90
7970;DHT22;4030;52.362;9.206;2022-09-12T16:54:32;27.00;41.00
7970;DHT22;4030;52.362;9.206;2022-09-12T16:56:58;27.00;41.60
7970;DHT22;4030;52.362;9.206;2022-09-12T17:04:16;27.10;42.10
7970;DHT22;4030;52.362;9.206;2022-09-12T17:06:42;26.90;42.10
7970;DHT22;4030;52.362;9.206;2022-09-12T17:09:08;27.00;42.20
7970;DHT22;4030;52.362;9.206;2022-09-12T17:11:37;26.90;42.30
7970;DHT22;4030;52.362;9.206;2022-09-12T17:14:06;26.90;42.50
7970;DHT22;4030;52.362;9.206;2022-09-12T17:16:34;26.90;42.70
7970;DHT22;4030;52.362;9.206;2022-09-12T17:21:28;26.80;42.80
7970;DHT22;4030;52.362;9.206;2022-09-12T17:31:13;26.70;43.20
7970;DHT22;4030;52.362;9.206;2022-09-12T17:33:39;26.50;43.20
7970;DHT22;4030;52.362;9.206;2022-09-12T17:36:08;26.60;43.40
7970;DHT22;4030;52.362;9.206;2022-09-12T17:38:37;26.50;43.50
7970;DHT22;4030;52.362;9.206;2022-09-12T17:41:09;26.50;43.50
7970;DHT22;4030;52.362;9.206;2022-09-12T17:43:39;26.30;43.50
7970;DHT22;4030;52.362;9.206;2022-09-12T17:46:05;26.50;43.60
7970;DHT22;4030;52.362;9.206;2022-09-12T17:53:34;26.30;43.80
7970;DHT22;4030;52.362;9.206;2022-09-12T17:56:01;26.30;43.90
7970;DHT22;4030;52.362;9.206;2022-09-12T17:58:28;26.20;43.90
7970;DHT22;4030;52.362;9.206;2022-09-12T18:01:06;26.30;44.00
7970;DHT22;4030;52.362;9.206;2022-09-12T18:03:54;25.90;43.80
7970;DHT22;4030;52.362;9.206;2022-09-12T18:06:22;26.10;44.20
7970;DHT22;4030;52.362;9.206;2022-09-12T18:08:48;26.00;44.20
7970;DHT22;4030;52.362;9.206;2022-09-12T18:11:13;26.00;44.20
7970;DHT22;4030;52.362;9.206;2022-09-12T18:13:39;25.90;44.30
7970;DHT22;4030;52.362;9.206;2022-09-12T18:16:07;25.90;44.30
7970;DHT22;4030;52.362;9.206;2022-09-12T18:18:35;25.90;44.50
7970;DHT22;4030;52.362;9.206;2022-09-12T18:21:02;25.80;44.60
7970;DHT22;4030;52.362;9.206;2022-09-12T18:23:29;25.70;44.60
7970;DHT22;4030;52.362;9.206;2022-09-12T18:26:00;25.80;44.70
7970;DHT22;4030;52.362;9.206;2022-09-12T18:28:28;25.60;44.70
7970;DHT22;4030;52.362;9.206;2022-09-12T18:30:56;25.70;44.90
7970;DHT22;4030;52.362;9.206;2022-09-12T18:33:22;25.50;44.90
7970;DHT22;4030;52.362;9.206;2022-09-12T18:35:48;25.60;45.00
7970;DHT22;4030;52.362;9.206;2022-09-12T18:45:33;25.40;45.20
7970;DHT22;4030;52.362;9.206;2022-09-12T18:47:59;25.30;45.30
7970;DHT22;4030;52.362;9.206;2022-09-12T18:52:51;25.30;45.40
7970;DHT22;4030;52.362;9.206;2022-09-12T18:55:17;25.10;45.40
7970;DHT22;4030;52.362;9.206;2022-09-12T18:57:43;25.20;45.60
7970;DHT22;4030;52.362;9.206;2022-09-12T19:00:09;25.10;45.60
7970;DHT22;4030;52.362;9.206;2022-09-12T19:02:37;25.10;45.70
7970;DHT22;4030;52.362;9.206;2022-09-12T19:09:56;25.00;46.00
7970;DHT22;4030;52.362;9.206;2022-09-12T19:12:22;25.00;46.00
7970;DHT22;4030;52.362;9.206;2022-09-12T19:14:47;24.90;46.10
7970;DHT22;4030;52.362;9.206;2022-09-12T19:17:13;24.90;46.10
7970;DHT22;4030;52.362;9.206;2022-09-12T19:39:08;24.40;46.50
7970;DHT22;4030;52.362;9.206;2022-09-12T19:41:34;24.40;46.60
7970;DHT22;4030;52.362;9.206;2022-09-12T19:44:00;24.40;46.70
7970;DHT22;4030;52.362;9.206;2022-09-12T19:46:26;24.40;46.80
7970;DHT22;4030;52.362;9.206;2022-09-12T19:51:20;24.30;46.90
7970;DHT22;4030;52.362;9.206;2022-09-12T19:58:42;24.20;47.10
7970;DHT22;4030;52.362;9.206;2022-09-12T20:03:44;24.00;47.10
7970;DHT22;4030;52.362;9.206;2022-09-12T20:06:15;23.80;47.00
7970;DHT22;4030;52.362;9.206;2022-09-12T20:08:42;23.90;47.20
7970;DHT22;4030;52.362;9.206;2022-09-12T20:11:09;23.90;47.20
7970;DHT22;4030;52.362;9.206;2022-09-12T20:16:10;23.80;47.40
7970;DHT22;4030;52.362;9.206;2022-09-12T20:18:44;23.80;47.50
7970;DHT22;4030;52.362;9.206;2022-09-12T20:21:15;23.70;47.40
7970;DHT22;4030;52.362;9.206;2022-09-12T20:23:42;23.80;47.60
7970;DHT22;4030;52.362;9.206;2022-09-12T20:26:09;23.70;47.60
7970;DHT22;4030;52.362;9.206;2022-09-12T20:28:36;23.70;47.60
7970;DHT22;4030;52.362;9.206;2022-09-12T20:31:04;23.70;47.80
7970;DHT22;4030;52.362;9.206;2022-09-12T20:36:02;23.50;47.70
7970;DHT22;4030;52.362;9.206;2022-09-12T20:38:28;23.40;47.80
7970;DHT22;4030;52.362;9.206;2022-09-12T20:40:54;23.50;48.00
7970;DHT22;4030;52.362;9.206;2022-09-12T20:43:20;23.30;47.90
7970;DHT22;4030;52.362;9.206;2022-09-12T20:48:11;23.40;48.20
7970;DHT22;4030;52.362;9.206;2022-09-12T20:50:37;23.40;48.30
7970;DHT22;4030;52.362;9.206;2022-09-12T20:53:03;23.20;48.20
7970;DHT22;4030;52.362;9.206;2022-09-12T20:55:29;23.30;48.30
7970;DHT22;4030;52.362;9.206;2022-09-12T21:02:50;23.10;48.40
7970;DHT22;4030;52.362;9.206;2022-09-12T21:05:16;23.20;48.60
7970;DHT22;4030;52.362;9.206;2022-09-12T21:07:42;23.10;48.60
7970;DHT22;4030;52.362;9.206;2022-09-12T21:10:08;23.10;48.70
7970;DHT22;4030;52.362;9.206;2022-09-12T21:12:33;23.10;48.70
7970;DHT22;4030;52.362;9.206;2022-09-12T21:19:51;23.00;48.90
7970;DHT22;4030;52.362;9.206;2022-09-12T21:22:17;23.00;49.00
7970;DHT22;4030;52.362;9.206;2022-09-12T21:24:42;22.90;48.90
7970;DHT22;4030;52.362;9.206;2022-09-12T21:27:08;22.90;49.00